Terminal Aerodrome Forecast
Issued by NWS

Home | Current Version | Previous Version | Graphics & Text | Print | Product List | Glossary On
Versions: 1 2 3 4 5 6 7 8 9 10 11 12 13 14 15 16 17 18 19 20 21
764
FTUS43 KTOP 120637 AAA
TAFFOE
TAF AMD
KFOE 120637Z 1207/1306 22004KT P6SM SCT040
     FM120830 34009KT P6SM BKN027
     FM121500 35014G21KT P6SM SCT020 BKN035
     FM130000 01008KT P6SM BKN100=

USA.gov is the U.S. government's official web portal to all federal, state and local government web resources and services.